Fidato — PB5970 — position and weather

sailwx.info

Track history (hours):
 
Tides and Currents Weather Stations Pressure Air Temp Water Temp Dewpoint Dewpoint Depression Visibility Wind Speed Wind Dir Waves Ship Positions

Fidato

Last reported at 2015-Aug-01 06:18 UTC. Time now 2015-Aug-01 09:45 UTC.
Position N 50°50' E 006°59'.

Length 135 m; draft 2.5 m.

Type: Ship. MMSI: 244670975.

Date/timePositionNaut miles runAvg speedWind from/ knotsBaromVisibWave heightAir tempDewpointWater temp
2015-Aug-01 06:18N 50°50' E 006°59'4 5.0
2015-Aug-01 05:33N 50°53' E 007°03'4 4.3
2015-Aug-01 04:33N 50°56' E 006°58'2 1.5
2015-Aug-01 03:31N 50°57' E 006°58'0 0.0
2015-Aug-01 02:31N 50°57' E 006°58'0 0.0
2015-Aug-01 01:30N 50°57' E 006°58'0 0.0
2015-Aug-01 00:30N 50°57' E 006°58'0 0.0
2015-Jul-31 23:29N 50°57' E 006°58'0 0.0
2015-Jul-31 22:33N 50°57' E 006°58'0 0.0
2015-Jul-31 21:32N 50°57' E 006°58'0 0.0
2015-Jul-31 20:30N 50°57' E 006°58'0 0.0
2015-Jul-31 19:30N 50°57' E 006°58'0 0.0
2015-Jul-31 18:29N 50°57' E 006°58'10 3.3
2015-Jul-31 15:33N 51°06' E 006°53'3 3.5
2015-Jul-31 14:33N 51°09' E 006°49'4 4.1
2015-Jul-31 13:33N 51°11' E 006°44'4 3.5
2015-Jul-31 12:33N 51°15' E 006°46'36 4.0
2015-Jul-31 03:26N 51°47' E 006°20'0 0.0
2015-Jul-31 02:33N 51°47' E 006°20'0 0.0
2015-Jul-31 01:32N 51°47' E 006°20'0 0.0
2015-Jul-31 00:22N 51°47' E 006°20'0 0.0
2015-Jul-30 23:33N 51°47' E 006°20'0 0.0
2015-Jul-30 22:33N 51°47' E 006°20'0 0.0
2015-Jul-30 21:28N 51°47' E 006°20'0 0.0
2015-Jul-30 20:32N 51°47' E 006°20'17 5.1
2015-Jul-30 17:06N 51°51' E 005°52'4 6.8
2015-Jul-30 16:33N 51°53' E 005°47'13 6.5
2015-Jul-30 14:30N 51°52' E 005°25'5 5.1
2015-Jul-30 13:33N 51°49' E 005°19'10 7.3
2015-Jul-30 12:12N 51°49' E 005°03'5 8.2
2015-Jul-30 11:34N 51°49' E 004°54'9 8.9
2015-Jul-30 10:34N 51°49' E 004°40'7 7.0
2015-Jul-30 09:33N 51°50' E 004°28'8 8.3
2015-Jul-30 08:33N 51°52' E 004°15'8 8.4
2015-Jul-30 07:33N 51°56' E 004°04'0 0.0
2015-Jul-30 06:33N 51°56' E 004°04'1 1.0
2015-Jul-30 05:33N 51°56' E 004°02'0 0.0
2015-Jul-30 04:33N 51°56' E 004°02'0 0.0
2015-Jul-30 03:33N 51°56' E 004°02'0 0.0
2015-Jul-30 02:33N 51°56' E 004°02'0 0.0
2015-Jul-30 01:33N 51°56' E 004°02'0 0.0
2015-Jul-30 00:33N 51°56' E 004°02'0 0.0
2015-Jul-29 23:33N 51°56' E 004°02'0 0.0
2015-Jul-29 22:33N 51°56' E 004°02'0 0.0
2015-Jul-29 21:33N 51°56' E 004°02'0 0.0
2015-Jul-29 20:33N 51°56' E 004°02'1 0.6
2015-Jul-29 19:33N 51°56' E 004°03'6 5.9
2015-Jul-29 18:33N 51°55' E 004°12'10 9.8
2015-Jul-29 17:33N 51°50' E 004°26'8 8.0
2015-Jul-29 16:33N 51°48' E 004°39'0 0.5
2015-Jul-29 15:33N 51°49' E 004°39'3 2.5
2015-Jul-29 14:21N 51°46' E 004°38'5 6.5
2015-Jul-29 13:32N 51°42' E 004°32'5 4.8
2015-Jul-29 12:29N 51°41' E 004°24'6 5.1
2015-Jul-29 11:20N 51°38' E 004°16'4 4.9
2015-Jul-29 10:29N 51°40' E 004°10'7 5.0
2015-Jul-29 09:07N 51°36' E 004°01'3 5.6
2015-Jul-29 08:33N 51°33' E 003°59'6 6.0
2015-Jul-29 07:34N 51°27' E 004°01'9 8.6
2015-Jul-29 06:33N 51°21' E 003°51'2 1.8
2015-Jul-29 05:34N 51°19' E 003°49'1 1.1
2015-Jul-29 04:33N 51°18' E 003°50'8 8.1
2015-Jul-29 03:33N 51°10' E 003°48'2 1.5
2015-Jul-29 02:33N 51°09' E 003°47'0 0.0
2015-Jul-29 01:33N 51°09' E 003°47'0 0.0
2015-Jul-29 00:33N 51°09' E 003°47'0 0.0
2015-Jul-28 23:33N 51°09' E 003°47'0 0.0
2015-Jul-28 22:33N 51°09' E 003°47'0 0.0
2015-Jul-28 21:33N 51°09' E 003°47'0 0.0
2015-Jul-28 20:33N 51°09' E 003°47'1 0.6
2015-Jul-28 19:33N 51°09' E 003°47'0 0.0
2015-Jul-28 18:33N 51°09' E 003°47'0 0.0
2015-Jul-28 17:33N 51°09' E 003°47'0 0.0
2015-Jul-28 16:33N 51°09' E 003°47'0 0.0
2015-Jul-28 15:33N 51°09' E 003°47'0 0.1
2015-Jul-28 14:33N 51°09' E 003°47'1 0.5
2015-Jul-28 13:33N 51°09' E 003°47'0 0.0
2015-Jul-28 12:33N 51°09' E 003°47'0 0.0
2015-Jul-28 11:33N 51°09' E 003°47'0 0.0
2015-Jul-28 10:33N 51°09' E 003°47'0 0.0
2015-Jul-28 09:33N 51°09' E 003°47'0 0.0
2015-Jul-28 08:33N 51°09' E 003°47'0 0.0
2015-Jul-28 07:33N 51°09' E 003°47'0 0.0
2015-Jul-28 06:33N 51°09' E 003°47'0 0.0
2015-Jul-28 05:34N 51°09' E 003°47'0 0.0
2015-Jul-28 04:34N 51°09' E 003°47'0 0.0
2015-Jul-28 03:33N 51°09' E 003°47'0 0.0
2015-Jul-28 02:33N 51°09' E 003°47'0 0.0
2015-Jul-28 01:33N 51°09' E 003°47'0 0.0
2015-Jul-28 00:33N 51°09' E 003°47'0 0.0
2015-Jul-27 23:33N 51°09' E 003°47'0 0.0
2015-Jul-27 22:33N 51°09' E 003°47'0 0.0
2015-Jul-27 21:33N 51°09' E 003°47'0 0.0
2015-Jul-27 20:33N 51°09' E 003°47'0 0.0
2015-Jul-27 19:33N 51°09' E 003°47'0 0.0
2015-Jul-27 18:33N 51°09' E 003°47'0 0.0
2015-Jul-27 17:33N 51°09' E 003°47'0 0.0
2015-Jul-27 16:33N 51°09' E 003°47'0 0.0
2015-Jul-27 15:33N 51°09' E 003°47'0 0.0
2015-Jul-27 14:33N 51°09' E 003°47'0 0.0
2015-Jul-27 13:33N 51°09' E 003°47'0 0.0
2015-Jul-27 12:33N 51°09' E 003°47'0 0.0
2015-Jul-27 11:33N 51°09' E 003°47'0 0.0
2015-Jul-27 10:33N 51°09' E 003°47'0 0.0
2015-Jul-27 09:33N 51°09' E 003°47'0 0.0
2015-Jul-27 08:33N 51°09' E 003°47'0 0.0
2015-Jul-27 07:33N 51°09' E 003°47'0 0.0
2015-Jul-27 06:33N 51°09' E 003°47'0 0.0
2015-Jul-27 05:33N 51°09' E 003°47'0 0.0
2015-Jul-27 04:33N 51°09' E 003°47'0 0.0
2015-Jul-27 03:33N 51°09' E 003°47'0 0.0
2015-Jul-27 02:33N 51°09' E 003°47'0 0.0
2015-Jul-27 01:33N 51°09' E 003°47'0 0.0
2015-Jul-27 00:33N 51°09' E 003°47'0 0.0
2015-Jul-26 23:33N 51°09' E 003°47'0 0.0
2015-Jul-26 22:33N 51°09' E 003°47'0 0.0
2015-Jul-26 21:33N 51°09' E 003°47'0 0.0
2015-Jul-26 20:33N 51°09' E 003°47'0 0.0
2015-Jul-26 19:33N 51°09' E 003°47'0 0.0
2015-Jul-26 18:33N 51°09' E 003°47'0 0.0
2015-Jul-26 17:33N 51°09' E 003°47'0 0.0
2015-Jul-26 16:33N 51°09' E 003°47'0 0.0
2015-Jul-26 15:33N 51°09' E 003°47'0 0.0
2015-Jul-26 14:33N 51°09' E 003°47'0 0.0
2015-Jul-26 13:34N 51°09' E 003°47'0 0.0
2015-Jul-26 12:33N 51°09' E 003°47'0 0.0
2015-Jul-26 11:33N 51°09' E 003°47'0 0.0
2015-Jul-26 10:33N 51°09' E 003°47'1 0.9
2015-Jul-26 09:33N 51°10' E 003°47'8 7.8
2015-Jul-26 08:33N 51°18' E 003°50'3 3.3
2015-Jul-26 07:33N 51°21' E 003°51'8 7.6
2015-Jul-26 06:33N 51°26' E 003°60'5 5.3
2015-Jul-26 05:33N 51°32' E 004°01'7 6.6
2015-Jul-26 04:33N 51°38' E 004°04'3 3.1
2015-Jul-26 03:33N 51°40' E 004°08'0 0.0
2015-Jul-26 02:31N 51°40' E 004°08'0 0.0
2015-Jul-26 01:33N 51°40' E 004°08'0 0.0
2015-Jul-26 00:32N 51°40' E 004°08'0 0.0
2015-Jul-25 23:32N 51°40' E 004°08'0 0.0
2015-Jul-25 22:33N 51°40' E 004°09'0 0.0
2015-Jul-25 21:33N 51°40' E 004°09'0 0.0
2015-Jul-25 20:21N 51°40' E 004°09'0 0.0
2015-Jul-25 19:33N 51°40' E 004°08'0 0.0
2015-Jul-25 18:31N 51°40' E 004°09'0 0.0
2015-Jul-25 17:31N 51°40' E 004°08'0 0.0
2015-Jul-25 16:33N 51°40' E 004°08'0 0.0
2015-Jul-25 15:26N 51°40' E 004°08'0 0.0
2015-Jul-25 14:33N 51°40' E 004°09'2 1.8
2015-Jul-25 13:33N 51°40' E 004°11'6 5.5
2015-Jul-25 12:31N 51°40' E 004°20'3 3.1
2015-Jul-25 11:32N 51°41' E 004°25'3 3.5
2015-Jul-25 10:33N 51°42' E 004°30'7 6.7
2015-Jul-25 09:33N 51°43' E 004°41'8 7.7
2015-Jul-25 08:33N 51°48' E 004°51'17 8.4
2015-Jul-25 06:30N 51°49' E 005°18'15 1.9
2015-Jul-24 22:30N 51°54' E 005°42'40 7.6
2015-Jul-24 17:12N 51°35' E 006°39'18 6.6
2015-Jul-24 14:27N 51°17' E 006°42'5 5.7
2015-Jul-24 13:33N 51°12' E 006°44'5 5.4
2015-Jul-24 12:33N 51°09' E 006°51'15 7.2
2015-Jul-24 10:31N 50°55' E 006°58'110 3.9
2015-Jul-23 06:33N 49°21' E 008°30'7 7.1
2015-Jul-23 05:33N 49°15' E 008°25'9 9.2
2015-Jul-23 04:33N 49°06' E 008°22'6 5.2
2015-Jul-23 03:30N 49°01' E 008°18'0 0.0
2015-Jul-23 02:33N 49°01' E 008°18'0 0.0
2015-Jul-23 01:33N 49°01' E 008°18'0 0.0
2015-Jul-23 00:33N 49°01' E 008°18'0 0.0
2015-Jul-22 23:33N 49°01' E 008°18'0 0.0
2015-Jul-22 22:33N 49°01' E 008°18'0 0.0
2015-Jul-22 21:33N 49°01' E 008°18'0 0.0
2015-Jul-22 20:33N 49°01' E 008°18'0 0.0
2015-Jul-22 19:33N 49°01' E 008°18'0 0.5
2015-Jul-22 18:33N 49°01' E 008°19'0 0.0
2015-Jul-22 17:33N 49°01' E 008°19'0 0.0
2015-Jul-22 16:33N 49°01' E 008°19'0 0.0
2015-Jul-22 15:33N 49°01' E 008°19'0 0.0
2015-Jul-22 14:33N 49°01' E 008°19'0 0.0
2015-Jul-22 13:33N 49°01' E 008°19'0 0.1
2015-Jul-22 12:33N 49°01' E 008°19'0 0.0
2015-Jul-22 11:31N 49°01' E 008°19'0 0.0
2015-Jul-22 10:29N 49°01' E 008°19'0 0.0
2015-Jul-22 09:32N 49°01' E 008°19'0 0.5
2015-Jul-22 08:32N 49°01' E 008°18'0 0.0
2015-Jul-22 07:33N 49°01' E 008°18'0 0.0
2015-Jul-22 06:31N 49°01' E 008°18'  
Track history (hours):
 
Tides and Currents Weather Stations Pressure Air Temp Water Temp Dewpoint Dewpoint Depression Visibility Wind Speed Wind Dir Waves Ship Positions

Fidato

Last reported at 2015-Aug-01 06:18 UTC. Time now 2015-Aug-01 09:45 UTC.
Position N 50°50' E 006°59'.

Length 135 m; draft 2.5 m.

Type: Ship. MMSI: 244670975.

Date/timePositionNaut miles runAvg speedWind from/ knotsBaromVisibWave heightAir tempDewpointWater temp
2015-Aug-01 06:18N 50°50' E 006°59'4 5.0
2015-Aug-01 05:33N 50°53' E 007°03'4 4.3
2015-Aug-01 04:33N 50°56' E 006°58'2 1.5
2015-Aug-01 03:31N 50°57' E 006°58'0 0.0
2015-Aug-01 02:31N 50°57' E 006°58'0 0.0
2015-Aug-01 01:30N 50°57' E 006°58'0 0.0
2015-Aug-01 00:30N 50°57' E 006°58'0 0.0
2015-Jul-31 23:29N 50°57' E 006°58'0 0.0
2015-Jul-31 22:33N 50°57' E 006°58'0 0.0
2015-Jul-31 21:32N 50°57' E 006°58'0 0.0
2015-Jul-31 20:30N 50°57' E 006°58'0 0.0
2015-Jul-31 19:30N 50°57' E 006°58'0 0.0
2015-Jul-31 18:29N 50°57' E 006°58'10 3.3
2015-Jul-31 15:33N 51°06' E 006°53'3 3.5
2015-Jul-31 14:33N 51°09' E 006°49'4 4.1
2015-Jul-31 13:33N 51°11' E 006°44'4 3.5
2015-Jul-31 12:33N 51°15' E 006°46'36 4.0
2015-Jul-31 03:26N 51°47' E 006°20'0 0.0
2015-Jul-31 02:33N 51°47' E 006°20'0 0.0
2015-Jul-31 01:32N 51°47' E 006°20'0 0.0
2015-Jul-31 00:22N 51°47' E 006°20'0 0.0
2015-Jul-30 23:33N 51°47' E 006°20'0 0.0
2015-Jul-30 22:33N 51°47' E 006°20'0 0.0
2015-Jul-30 21:28N 51°47' E 006°20'0 0.0
2015-Jul-30 20:32N 51°47' E 006°20'17 5.1
2015-Jul-30 17:06N 51°51' E 005°52'4 6.8
2015-Jul-30 16:33N 51°53' E 005°47'13 6.5
2015-Jul-30 14:30N 51°52' E 005°25'5 5.1
2015-Jul-30 13:33N 51°49' E 005°19'10 7.3
2015-Jul-30 12:12N 51°49' E 005°03'5 8.2
2015-Jul-30 11:34N 51°49' E 004°54'9 8.9
2015-Jul-30 10:34N 51°49' E 004°40'7 7.0
2015-Jul-30 09:33N 51°50' E 004°28'8 8.3
2015-Jul-30 08:33N 51°52' E 004°15'8 8.4
2015-Jul-30 07:33N 51°56' E 004°04'0 0.0
2015-Jul-30 06:33N 51°56' E 004°04'1 1.0
2015-Jul-30 05:33N 51°56' E 004°02'0 0.0
2015-Jul-30 04:33N 51°56' E 004°02'0 0.0
2015-Jul-30 03:33N 51°56' E 004°02'0 0.0
2015-Jul-30 02:33N 51°56' E 004°02'0 0.0
2015-Jul-30 01:33N 51°56' E 004°02'0 0.0
2015-Jul-30 00:33N 51°56' E 004°02'0 0.0
2015-Jul-29 23:33N 51°56' E 004°02'0 0.0
2015-Jul-29 22:33N 51°56' E 004°02'0 0.0
2015-Jul-29 21:33N 51°56' E 004°02'0 0.0
2015-Jul-29 20:33N 51°56' E 004°02'1 0.6
2015-Jul-29 19:33N 51°56' E 004°03'6 5.9
2015-Jul-29 18:33N 51°55' E 004°12'10 9.8
2015-Jul-29 17:33N 51°50' E 004°26'8 8.0
2015-Jul-29 16:33N 51°48' E 004°39'0 0.5
2015-Jul-29 15:33N 51°49' E 004°39'3 2.5
2015-Jul-29 14:21N 51°46' E 004°38'5 6.5
2015-Jul-29 13:32N 51°42' E 004°32'5 4.8
2015-Jul-29 12:29N 51°41' E 004°24'6 5.1
2015-Jul-29 11:20N 51°38' E 004°16'4 4.9
2015-Jul-29 10:29N 51°40' E 004°10'7 5.0
2015-Jul-29 09:07N 51°36' E 004°01'3 5.6
2015-Jul-29 08:33N 51°33' E 003°59'6 6.0
2015-Jul-29 07:34N 51°27' E 004°01'9 8.6
2015-Jul-29 06:33N 51°21' E 003°51'2 1.8
2015-Jul-29 05:34N 51°19' E 003°49'1 1.1
2015-Jul-29 04:33N 51°18' E 003°50'8 8.1
2015-Jul-29 03:33N 51°10' E 003°48'2 1.5
2015-Jul-29 02:33N 51°09' E 003°47'0 0.0
2015-Jul-29 01:33N 51°09' E 003°47'0 0.0
2015-Jul-29 00:33N 51°09' E 003°47'0 0.0
2015-Jul-28 23:33N 51°09' E 003°47'0 0.0
2015-Jul-28 22:33N 51°09' E 003°47'0 0.0
2015-Jul-28 21:33N 51°09' E 003°47'0 0.0
2015-Jul-28 20:33N 51°09' E 003°47'1 0.6
2015-Jul-28 19:33N 51°09' E 003°47'0 0.0
2015-Jul-28 18:33N 51°09' E 003°47'0 0.0
2015-Jul-28 17:33N 51°09' E 003°47'0 0.0
2015-Jul-28 16:33N 51°09' E 003°47'0 0.0
2015-Jul-28 15:33N 51°09' E 003°47'0 0.1
2015-Jul-28 14:33N 51°09' E 003°47'1 0.5
2015-Jul-28 13:33N 51°09' E 003°47'0 0.0
2015-Jul-28 12:33N 51°09' E 003°47'0 0.0
2015-Jul-28 11:33N 51°09' E 003°47'0 0.0
2015-Jul-28 10:33N 51°09' E 003°47'0 0.0
2015-Jul-28 09:33N 51°09' E 003°47'0 0.0
2015-Jul-28 08:33N 51°09' E 003°47'0 0.0
2015-Jul-28 07:33N 51°09' E 003°47'0 0.0
2015-Jul-28 06:33N 51°09' E 003°47'0 0.0
2015-Jul-28 05:34N 51°09' E 003°47'0 0.0
2015-Jul-28 04:34N 51°09' E 003°47'0 0.0
2015-Jul-28 03:33N 51°09' E 003°47'0 0.0
2015-Jul-28 02:33N 51°09' E 003°47'0 0.0
2015-Jul-28 01:33N 51°09' E 003°47'0 0.0
2015-Jul-28 00:33N 51°09' E 003°47'0 0.0
2015-Jul-27 23:33N 51°09' E 003°47'0 0.0
2015-Jul-27 22:33N 51°09' E 003°47'0 0.0
2015-Jul-27 21:33N 51°09' E 003°47'0 0.0
2015-Jul-27 20:33N 51°09' E 003°47'0 0.0
2015-Jul-27 19:33N 51°09' E 003°47'0 0.0
2015-Jul-27 18:33N 51°09' E 003°47'0 0.0
2015-Jul-27 17:33N 51°09' E 003°47'0 0.0
2015-Jul-27 16:33N 51°09' E 003°47'0 0.0
2015-Jul-27 15:33N 51°09' E 003°47'0 0.0
2015-Jul-27 14:33N 51°09' E 003°47'0 0.0
2015-Jul-27 13:33N 51°09' E 003°47'0 0.0
2015-Jul-27 12:33N 51°09' E 003°47'0 0.0
2015-Jul-27 11:33N 51°09' E 003°47'0 0.0
2015-Jul-27 10:33N 51°09' E 003°47'0 0.0
2015-Jul-27 09:33N 51°09' E 003°47'0 0.0
2015-Jul-27 08:33N 51°09' E 003°47'0 0.0
2015-Jul-27 07:33N 51°09' E 003°47'0 0.0
2015-Jul-27 06:33N 51°09' E 003°47'0 0.0
2015-Jul-27 05:33N 51°09' E 003°47'0 0.0
2015-Jul-27 04:33N 51°09' E 003°47'0 0.0
2015-Jul-27 03:33N 51°09' E 003°47'0 0.0
2015-Jul-27 02:33N 51°09' E 003°47'0 0.0
2015-Jul-27 01:33N 51°09' E 003°47'0 0.0
2015-Jul-27 00:33N 51°09' E 003°47'0 0.0
2015-Jul-26 23:33N 51°09' E 003°47'0 0.0
2015-Jul-26 22:33N 51°09' E 003°47'0 0.0
2015-Jul-26 21:33N 51°09' E 003°47'0 0.0
2015-Jul-26 20:33N 51°09' E 003°47'0 0.0
2015-Jul-26 19:33N 51°09' E 003°47'0 0.0
2015-Jul-26 18:33N 51°09' E 003°47'0 0.0
2015-Jul-26 17:33N 51°09' E 003°47'0 0.0
2015-Jul-26 16:33N 51°09' E 003°47'0 0.0
2015-Jul-26 15:33N 51°09' E 003°47'0 0.0
2015-Jul-26 14:33N 51°09' E 003°47'0 0.0
2015-Jul-26 13:34N 51°09' E 003°47'0 0.0
2015-Jul-26 12:33N 51°09' E 003°47'0 0.0
2015-Jul-26 11:33N 51°09' E 003°47'0 0.0
2015-Jul-26 10:33N 51°09' E 003°47'1 0.9
2015-Jul-26 09:33N 51°10' E 003°47'8 7.8
2015-Jul-26 08:33N 51°18' E 003°50'3 3.3
2015-Jul-26 07:33N 51°21' E 003°51'8 7.6
2015-Jul-26 06:33N 51°26' E 003°60'5 5.3
2015-Jul-26 05:33N 51°32' E 004°01'7 6.6
2015-Jul-26 04:33N 51°38' E 004°04'3 3.1
2015-Jul-26 03:33N 51°40' E 004°08'0 0.0
2015-Jul-26 02:31N 51°40' E 004°08'0 0.0
2015-Jul-26 01:33N 51°40' E 004°08'0 0.0
2015-Jul-26 00:32N 51°40' E 004°08'0 0.0
2015-Jul-25 23:32N 51°40' E 004°08'0 0.0
2015-Jul-25 22:33N 51°40' E 004°09'0 0.0
2015-Jul-25 21:33N 51°40' E 004°09'0 0.0
2015-Jul-25 20:21N 51°40' E 004°09'0 0.0
2015-Jul-25 19:33N 51°40' E 004°08'0 0.0
2015-Jul-25 18:31N 51°40' E 004°09'0 0.0
2015-Jul-25 17:31N 51°40' E 004°08'0 0.0
2015-Jul-25 16:33N 51°40' E 004°08'0 0.0
2015-Jul-25 15:26N 51°40' E 004°08'0 0.0
2015-Jul-25 14:33N 51°40' E 004°09'2 1.8
2015-Jul-25 13:33N 51°40' E 004°11'6 5.5
2015-Jul-25 12:31N 51°40' E 004°20'3 3.1
2015-Jul-25 11:32N 51°41' E 004°25'3 3.5
2015-Jul-25 10:33N 51°42' E 004°30'7 6.7
2015-Jul-25 09:33N 51°43' E 004°41'8 7.7
2015-Jul-25 08:33N 51°48' E 004°51'17 8.4
2015-Jul-25 06:30N 51°49' E 005°18'15 1.9
2015-Jul-24 22:30N 51°54' E 005°42'40 7.6
2015-Jul-24 17:12N 51°35' E 006°39'18 6.6
2015-Jul-24 14:27N 51°17' E 006°42'5 5.7
2015-Jul-24 13:33N 51°12' E 006°44'5 5.4
2015-Jul-24 12:33N 51°09' E 006°51'15 7.2
2015-Jul-24 10:31N 50°55' E 006°58'110 3.9
2015-Jul-23 06:33N 49°21' E 008°30'7 7.1
2015-Jul-23 05:33N 49°15' E 008°25'9 9.2
2015-Jul-23 04:33N 49°06' E 008°22'6 5.2
2015-Jul-23 03:30N 49°01' E 008°18'0 0.0
2015-Jul-23 02:33N 49°01' E 008°18'0 0.0
2015-Jul-23 01:33N 49°01' E 008°18'0 0.0
2015-Jul-23 00:33N 49°01' E 008°18'0 0.0
2015-Jul-22 23:33N 49°01' E 008°18'0 0.0
2015-Jul-22 22:33N 49°01' E 008°18'0 0.0
2015-Jul-22 21:33N 49°01' E 008°18'0 0.0
2015-Jul-22 20:33N 49°01' E 008°18'0 0.0
2015-Jul-22 19:33N 49°01' E 008°18'0 0.5
2015-Jul-22 18:33N 49°01' E 008°19'0 0.0
2015-Jul-22 17:33N 49°01' E 008°19'0 0.0
2015-Jul-22 16:33N 49°01' E 008°19'0 0.0
2015-Jul-22 15:33N 49°01' E 008°19'0 0.0
2015-Jul-22 14:33N 49°01' E 008°19'0 0.0
2015-Jul-22 13:33N 49°01' E 008°19'0 0.1
2015-Jul-22 12:33N 49°01' E 008°19'0 0.0
2015-Jul-22 11:31N 49°01' E 008°19'0 0.0
2015-Jul-22 10:29N 49°01' E 008°19'0 0.0
2015-Jul-22 09:32N 49°01' E 008°19'0 0.5
2015-Jul-22 08:32N 49°01' E 008°18'0 0.0
2015-Jul-22 07:33N 49°01' E 008°18'0 0.0
2015-Jul-22 06:31N 49°01' E 008°18'  

Dump ship's entire track history